Charlotte, North Carolina
Current Conditions -  °F | °C
As of 2:52 AM on Thursday 23 Oct 2014 (Local Time) from KCLT Reporting Station
Clear Clear  
Wind Chill:   Ceiling: Unl
Heat Index:   Visibility: 10mi
Dew Point:   Wind: 5mph
Humidity: 76%   Direction: 330°NNW
Pressure: 30.08"   Gusts: NA
Location:  35.22°N, 80.84°W
Report Text: KCLT 230652Z 33004KT 10SM CLR 07/03 A3008 RMK AO2 SLP182 T00670028
Loading
Personal Weather Stations






























Interactive Weather Map
Tropical Storm Tracking
New forecast layout! Learn more

10-Day Weather Forecast

Advertisements
Track Severe Weather on mobile